createdAt,value
2019-05-19T00:06:58.105Z,986.39
2019-05-19T00:16:58.155Z,986.39
2019-05-19T00:26:58.127Z,986.21
2019-05-19T00:36:58.083Z,986.11
2019-05-19T00:46:58.149Z,986.08
2019-05-19T01:07:06.274Z,986.04
2019-05-19T01:17:05.857Z,985.89
2019-05-19T01:27:05.911Z,985.86
2019-05-19T01:37:05.865Z,985.85
2019-05-19T01:47:05.875Z,985.82
2019-05-19T01:57:05.920Z,985.82
2019-05-19T02:07:05.904Z,985.79
2019-05-19T02:17:05.877Z,985.74
2019-05-19T02:27:06.031Z,985.72
2019-05-19T02:37:05.898Z,985.80
2019-05-19T02:47:05.966Z,985.72
2019-05-19T02:57:05.899Z,985.64
2019-05-19T03:07:05.902Z,985.57
2019-05-19T03:17:05.878Z,985.64
2019-05-19T03:27:05.956Z,985.64
2019-05-19T03:37:05.885Z,985.70
2019-05-19T03:47:05.914Z,985.59
2019-05-19T03:57:05.930Z,985.67
2019-05-19T04:07:05.940Z,985.59
2019-05-19T04:17:05.965Z,985.64
2019-05-19T04:27:05.954Z,985.65
2019-05-19T04:37:05.933Z,985.63
2019-05-19T04:47:05.979Z,985.60
2019-05-19T04:57:05.944Z,985.57
2019-05-19T05:07:06.013Z,985.60
2019-05-19T05:17:05.864Z,985.66
2019-05-19T05:27:05.970Z,985.68
2019-05-19T05:37:06.011Z,985.72
2019-05-19T05:47:05.976Z,985.71
2019-05-19T05:57:06.037Z,985.65
2019-05-19T06:07:05.917Z,985.70
2019-05-19T06:17:05.878Z,985.66
2019-05-19T06:27:05.959Z,985.71
2019-05-19T06:37:05.895Z,985.81
2019-05-19T06:47:05.881Z,985.88
2019-05-19T06:57:06.049Z,985.87
2019-05-19T07:07:05.947Z,985.94
2019-05-19T07:17:05.869Z,985.92
2019-05-19T07:27:05.966Z,985.83
2019-05-19T07:37:05.906Z,985.83
2019-05-19T07:47:05.894Z,985.90
2019-05-19T07:57:05.964Z,985.89
2019-05-19T08:07:05.915Z,985.75
2019-05-19T08:17:06.029Z,985.80
2019-05-19T08:27:05.944Z,985.73
2019-05-19T08:37:05.909Z,985.76
2019-05-19T08:47:06.005Z,985.87
2019-05-19T08:57:05.958Z,985.81
2019-05-19T09:07:05.927Z,985.78
2019-05-19T09:17:05.932Z,985.71
2019-05-19T09:27:05.960Z,985.69
2019-05-19T09:37:05.917Z,985.67
2019-05-19T09:47:05.938Z,985.58
2019-05-19T09:57:05.994Z,985.56
2019-05-19T10:07:06.651Z,985.53
2019-05-19T10:17:06.029Z,985.47
2019-05-19T10:27:05.944Z,985.43
2019-05-19T10:37:06.035Z,985.41
2019-05-19T10:47:05.983Z,985.30
2019-05-19T10:57:05.961Z,985.29
2019-05-19T11:07:06.038Z,985.33
2019-05-19T11:17:06.092Z,985.24
2019-05-19T11:27:05.935Z,985.22
2019-05-19T11:37:07.424Z,985.07
2019-05-19T11:47:05.959Z,985.16
2019-05-19T11:57:06.025Z,985.19
2019-05-19T12:07:05.983Z,985.17
2019-05-19T12:17:06.029Z,985.21
2019-05-19T12:27:06.029Z,985.15
2019-05-19T12:37:05.980Z,985.00
2019-05-19T12:47:06.099Z,984.94
2019-05-19T12:57:06.027Z,984.91
2019-05-19T13:07:05.998Z,985.05
2019-05-19T13:17:05.989Z,985.03
2019-05-19T13:27:06.035Z,984.82
2019-05-19T13:37:06.012Z,984.75
2019-05-19T13:47:06.055Z,984.79
2019-05-19T13:57:12.318Z,984.78
2019-05-19T14:07:06.015Z,984.90
2019-05-19T14:17:06.066Z,985.03
2019-05-19T14:27:06.066Z,985.17
2019-05-19T14:37:06.026Z,985.19
2019-05-19T14:47:06.075Z,985.28
2019-05-19T14:57:06.040Z,985.19
2019-05-19T15:07:06.117Z,985.15
2019-05-19T15:17:06.088Z,985.11
2019-05-19T15:27:06.050Z,984.80
2019-05-19T15:37:06.115Z,984.63
2019-05-19T15:47:06.086Z,984.45
2019-05-19T15:57:06.042Z,984.60
2019-05-19T16:07:06.166Z,984.82
2019-05-19T16:17:06.126Z,985.14
2019-05-19T16:27:06.080Z,985.26
2019-05-19T16:37:06.105Z,985.26
2019-05-19T16:47:06.125Z,985.46
2019-05-19T16:57:06.067Z,985.35
2019-05-19T17:07:06.043Z,985.21
2019-05-19T17:17:06.090Z,985.19
2019-05-19T17:27:06.103Z,985.16
2019-05-19T17:37:06.030Z,985.09
2019-05-19T17:47:06.111Z,985.04
2019-05-19T17:57:06.341Z,985.07
2019-05-19T18:07:06.015Z,985.22
2019-05-19T18:17:06.162Z,985.30
2019-05-19T18:27:06.065Z,985.36
2019-05-19T18:37:06.028Z,985.59
2019-05-19T18:47:06.081Z,985.65
2019-05-19T18:57:06.096Z,985.54
2019-05-19T19:07:06.043Z,985.73
2019-05-19T19:17:06.104Z,985.82
2019-05-19T19:27:06.063Z,985.89
2019-05-19T19:37:06.047Z,985.99
2019-05-19T19:47:06.127Z,986.13
2019-05-19T19:57:06.073Z,986.12
2019-05-19T20:07:06.049Z,986.27
2019-05-19T20:17:06.103Z,986.46
2019-05-19T20:27:06.186Z,986.46
2019-05-19T20:37:06.031Z,986.64
2019-05-19T20:47:06.089Z,986.63
2019-05-19T20:57:06.101Z,986.60
2019-05-19T21:07:07.902Z,986.65
2019-05-19T21:17:06.098Z,986.62
2019-05-19T21:27:06.072Z,986.62
2019-05-19T21:37:06.031Z,986.58
2019-05-19T21:47:06.107Z,986.55
2019-05-19T21:57:06.091Z,986.60
2019-05-19T22:07:06.060Z,986.77
2019-05-19T22:17:06.156Z,986.92
2019-05-19T22:27:06.085Z,986.83
2019-05-19T22:37:06.149Z,986.74
2019-05-19T22:47:06.100Z,986.67
2019-05-19T22:57:06.076Z,986.73
2019-05-19T23:07:06.041Z,986.62
2019-05-19T23:17:06.119Z,986.55
2019-05-19T23:27:06.076Z,986.47
2019-05-19T23:37:06.088Z,986.46
2019-05-19T23:47:06.069Z,986.41
2019-05-19T23:57:06.035Z,986.49
